Terminal Aerodrome Forecast
Issued by NWS Pendleton, OR

Home | Current Version | Previous Version | Text Only | Print | Product List | Glossary On
Versions: 1 2 3 4 5 6 7 8 9 10 11 12 13 14 15 16
000
FTUS46 KPDT 181100
TAFPDT
TAF
KPDT 181120Z 1812/1912 26011KT P6SM SKC
     FM181500 26017G25KT P6SM SKC
     FM182100 28015G23KT P6SM FEW150
     FM190000 28011KT P6SM FEW150
     FM190400 14006KT P6SM SCT120=

USA.gov is the U.S. government's official web portal to all federal, state and local government web resources and services.